Time;durP1;ratioP1;P1;durP2;ratioP2;P2;SDS_P1;SDS_P2;PMS_P1;PMS_P2;Temp;Humidity;BMP_temperature;BMP_pressure;BME280_temperature;BME280_humidity;BME280_pressure;Samples;Min_cycle;Max_cycle;Signal;HPM_P1;HPM_P2
2023/01/16 00:02:16;;;;;;;17.88;9.13;;;;;;;;;;5023438;28;20092;-81
2023/01/16 00:04:44;;;;;;;22.58;9.45;;;;;;;;;;5034360;28;20116;-81
2023/01/16 00:07:12;;;;;;;23.88;9.13;;;;;;;;;;5034561;28;20022;-81
2023/01/16 00:09:38;;;;;;;23.40;9.43;;;;;;;;;;5035559;28;20883;-80
2023/01/16 00:12:06;;;;;;;24.45;10.52;;;;;;;;;;5016423;28;20053;-80
2023/01/16 00:14:31;;;;;;;23.90;9.65;;;;;;;;;;5019782;28;20786;-80
2023/01/16 00:16:57;;;;;;;20.98;9.27;;;;;;;;;;5034942;28;20033;-79
2023/01/16 00:19:22;;;;;;;23.13;8.93;;;;;;;;;;5031764;28;20087;-79
2023/01/16 00:21:48;;;;;;;27.00;9.50;;;;;;;;;;5040903;28;20029;-79
2023/01/16 00:24:16;;;;;;;21.17;9.88;;;;;;;;;;5039734;28;20032;-80
2023/01/16 00:26:44;;;;;;;22.90;9.43;;;;;;;;;;5029603;28;20056;-80
2023/01/16 00:29:10;;;;;;;25.13;9.45;;;;;;;;;;5038319;28;20029;-80
2023/01/16 00:31:35;;;;;;;25.02;9.77;;;;;;;;;;5039154;28;20037;-79
2023/01/16 00:34:03;;;;;;;22.80;10.25;;;;;;;;;;5005458;28;20034;-80
2023/01/16 00:36:29;;;;;;;26.05;9.38;;;;;;;;;;5034356;28;20040;-80
2023/01/16 00:38:56;;;;;;;27.88;9.43;;;;;;;;;;5034330;28;20021;-80
2023/01/16 00:41:21;;;;;;;26.23;9.05;;;;;;;;;;5017164;28;20179;-81
2023/01/16 00:43:47;;;;;;;31.00;11.00;;;;;;;;;;5035657;28;20140;-80
2023/01/16 00:46:12;;;;;;;33.75;9.98;;;;;;;;;;5033574;28;20087;-81
2023/01/16 00:48:38;;;;;;;27.60;11.07;;;;;;;;;;5038617;28;20025;-81
2023/01/16 00:51:03;;;;;;;27.92;10.82;;;;;;;;;;5034130;28;20480;-81
2023/01/16 00:53:29;;;;;;;26.25;9.52;;;;;;;;;;5034435;28;20038;-80
2023/01/16 00:55:57;;;;;;;28.20;9.93;;;;;;;;;;5042209;28;20029;-81
2023/01/16 00:58:22;;;;;;;31.15;10.95;;;;;;;;;;5033159;28;20076;-80
2023/01/16 01:00:49;;;;;;;29.70;10.70;;;;;;;;;;5028302;28;20508;-82
2023/01/16 01:03:14;;;;;;;28.45;9.80;;;;;;;;;;5026473;28;20026;-80
2023/01/16 01:05:40;;;;;;;33.30;10.90;;;;;;;;;;5024345;28;20144;-80
2023/01/16 01:08:08;;;;;;;32.92;10.57;;;;;;;;;;5041716;28;20022;-79
2023/01/16 01:10:35;;;;;;;37.30;11.57;;;;;;;;;;5026965;28;20029;-81
2023/01/16 01:13:00;;;;;;;28.10;10.75;;;;;;;;;;5015725;28;20519;-81
2023/01/16 01:15:28;;;;;;;37.40;11.02;;;;;;;;;;5033770;28;20037;-81
2023/01/16 01:17:54;;;;;;;30.95;10.90;;;;;;;;;;5034224;28;20384;-82
2023/01/16 01:20:19;;;;;;;28.33;9.90;;;;;;;;;;5031414;28;20071;-81
2023/01/16 01:22:46;;;;;;;31.60;10.75;;;;;;;;;;5034252;28;20424;-80
2023/01/16 01:25:11;;;;;;;35.85;11.48;;;;;;;;;;5030442;28;20045;-82
2023/01/16 01:27:37;;;;;;;36.80;10.95;;;;;;;;;;5025659;28;20492;-82
2023/01/16 01:30:03;;;;;;;31.23;9.93;;;;;;;;;;5026422;28;20049;-82
2023/01/16 01:32:31;;;;;;;31.52;11.10;;;;;;;;;;5029699;28;20123;-81
2023/01/16 01:34:58;;;;;;;29.90;11.63;;;;;;;;;;5039695;28;20497;-82
2023/01/16 01:37:24;;;;;;;34.45;12.13;;;;;;;;;;5037010;28;20396;-81
2023/01/16 01:39:50;;;;;;;37.28;13.23;;;;;;;;;;5033972;28;20033;-82
2023/01/16 01:45:12;;;;;;;29.92;10.82;;;;;;;;;;5024028;28;20496;-81
2023/01/16 01:47:37;;;;;;;34.63;11.48;;;;;;;;;;5042365;28;20074;-81
2023/01/16 01:50:04;;;;;;;32.75;11.30;;;;;;;;;;5033125;28;20403;-81
2023/01/16 01:52:29;;;;;;;33.90;12.27;;;;;;;;;;5030515;28;20029;-81
2023/01/16 01:54:56;;;;;;;37.65;10.95;;;;;;;;;;5027565;28;20159;-81
2023/01/16 01:57:26;;;;;;;34.65;11.10;;;;;;;;;;5031460;28;20130;-79
2023/01/16 01:59:54;;;;;;;43.83;12.02;;;;;;;;;;5031317;28;20507;-81
2023/01/16 02:02:20;;;;;;;37.53;12.75;;;;;;;;;;5031610;28;20045;-81
2023/01/16 02:04:46;;;;;;;36.10;10.80;;;;;;;;;;5031547;28;20033;-81
2023/01/16 02:07:12;;;;;;;32.55;10.70;;;;;;;;;;5031235;28;20040;-81
2023/01/16 02:09:37;;;;;;;36.63;11.68;;;;;;;;;;5031605;28;20079;-80
2023/01/16 02:12:07;;;;;;;31.98;11.18;;;;;;;;;;5034782;28;20049;-81
2023/01/16 02:14:34;;;;;;;33.08;11.00;;;;;;;;;;5033875;28;20052;-80
2023/01/16 02:19:47;;;;;;;29.13;10.40;;;;;;;;;;5028425;28;20448;-81
2023/01/16 02:22:21;;;;;;;31.60;10.90;;;;;;;;;;5032190;28;20153;-80
2023/01/16 02:24:50;;;;;;;38.47;10.70;;;;;;;;;;5033132;28;20030;-80
2023/01/16 02:27:24;;;;;;;36.85;12.23;;;;;;;;;;5046675;28;20511;-80
2023/01/16 02:30:10;;;;;;;37.70;10.80;;;;;;;;;;5034714;28;20038;-80
2023/01/16 02:32:56;;;;;;;30.17;10.52;;;;;;;;;;5026638;28;20183;-81
2023/01/16 02:35:42;;;;;;;37.78;11.57;;;;;;;;;;5025444;28;20042;-79
2023/01/16 02:38:16;;;;;;;39.33;11.77;;;;;;;;;;5021241;28;20084;-80
2023/01/16 02:40:42;;;;;;;37.90;11.75;;;;;;;;;;5030557;28;20485;-80
2023/01/16 02:43:16;;;;;;;34.90;10.95;;;;;;;;;;5025294;28;20033;-81
2023/01/16 02:45:42;;;;;;;38.88;11.25;;;;;;;;;;5037178;28;20369;-80
2023/01/16 02:48:07;;;;;;;43.53;11.48;;;;;;;;;;5032524;28;20047;-81
2023/01/16 02:50:52;;;;;;;42.80;12.88;;;;;;;;;;5027169;28;20045;-81
2023/01/16 02:53:22;;;;;;;50.20;12.25;;;;;;;;;;5033688;28;20029;-80
2023/01/16 02:55:54;;;;;;;35.42;10.95;;;;;;;;;;5030083;28;20021;-81
2023/01/16 02:58:19;;;;;;;31.73;10.50;;;;;;;;;;5031032;28;20120;-81
2023/01/16 03:01:03;;;;;;;34.72;11.75;;;;;;;;;;5029997;28;20163;-81
2023/01/16 03:03:47;;;;;;;38.60;11.88;;;;;;;;;;5048663;28;20052;-81
2023/01/16 03:06:16;;;;;;;31.35;10.68;;;;;;;;;;5031172;28;20094;-81
2023/01/16 03:08:41;;;;;;;30.63;10.45;;;;;;;;;;5032178;28;20022;-82
2023/01/16 03:11:22;;;;;;;32.25;11.43;;;;;;;;;;5038719;28;20044;-81
2023/01/16 03:14:06;;;;;;;42.53;10.73;;;;;;;;;;5023832;28;20536;-81
2023/01/16 03:16:40;;;;;;;38.75;11.52;;;;;;;;;;5033279;28;20670;-80
2023/01/16 03:19:09;;;;;;;38.20;10.45;;;;;;;;;;5032796;28;20140;-81
2023/01/16 03:21:38;;;;;;;42.72;12.50;;;;;;;;;;5047428;28;20022;-81
2023/01/16 03:24:06;;;;;;;31.60;10.20;;;;;;;;;;5033544;28;20030;-81
2023/01/16 03:26:47;;;;;;;33.67;11.73;;;;;;;;;;5031921;28;20408;-81
2023/01/16 03:29:25;;;;;;;41.22;10.95;;;;;;;;;;5046997;28;20048;-80
2023/01/16 03:31:50;;;;;;;35.55;10.90;;;;;;;;;;5033015;28;20029;-82
2023/01/16 03:34:17;;;;;;;34.15;10.98;;;;;;;;;;5032048;28;20040;-80
2023/01/16 03:36:44;;;;;;;41.05;11.30;;;;;;;;;;5045493;28;20037;-82
2023/01/16 03:39:10;;;;;;;34.17;11.60;;;;;;;;;;5029035;28;20030;-81
2023/01/16 03:41:36;;;;;;;32.08;10.93;;;;;;;;;;5030491;28;20094;-81
2023/01/16 03:44:01;;;;;;;;;;;;;;;;;;5036566;28;20038;-81
2023/01/16 03:46:28;;;;;;;33.65;10.25;;;;;;;;;;5039793;28;19919;-81
2023/01/16 03:49:10;;;;;;;37.83;11.15;;;;;;;;;;5037570;28;20502;-81
2023/01/16 03:51:37;;;;;;;32.20;9.32;;;;;;;;;;5022838;28;20025;-80
2023/01/16 03:54:16;;;;;;;38.75;9.82;;;;;;;;;;5025562;28;20026;-81
2023/01/16 03:56:48;;;;;;;29.58;8.20;;;;;;;;;;5030814;28;20504;-82
2023/01/16 03:59:14;;;;;;;29.38;9.43;;;;;;;;;;5035649;28;20856;-80
2023/01/16 04:01:43;;;;;;;40.25;10.00;;;;;;;;;;5025724;28;20033;-81
2023/01/16 04:04:09;;;;;;;29.83;9.73;;;;;;;;;;5030229;28;20158;-81
2023/01/16 04:06:44;;;;;;;33.95;9.23;;;;;;;;;;5032251;28;20025;-81
2023/01/16 04:09:11;;;;;;;31.63;9.68;;;;;;;;;;5030187;28;20029;-82
2023/01/16 04:11:37;;;;;;;26.23;8.45;;;;;;;;;;5030907;28;20053;-82
2023/01/16 04:14:02;;;;;;;32.30;9.38;;;;;;;;;;5029814;28;20061;-81
2023/01/16 04:16:29;;;;;;;36.25;9.10;;;;;;;;;;5029399;28;20512;-81
2023/01/16 04:18:54;;;;;;;22.55;9.23;;;;;;;;;;5027617;28;20075;-83
2023/01/16 04:21:19;;;;;;;35.50;8.35;;;;;;;;;;5013006;28;20484;-81
2023/01/16 04:23:45;;;;;;;28.08;8.85;;;;;;;;;;5030819;28;20057;-81
2023/01/16 04:26:10;;;;;;;23.65;8.55;;;;;;;;;;5036707;28;20060;-81
2023/01/16 04:28:36;;;;;;;28.60;8.68;;;;;;;;;;5024825;28;20034;-80
2023/01/16 04:31:01;;;;;;;28.30;8.05;;;;;;;;;;5025661;28;20030;-81
2023/01/16 04:33:27;;;;;;;26.10;7.95;;;;;;;;;;5021332;28;20088;-80
2023/01/16 04:35:52;;;;;;;32.10;8.77;;;;;;;;;;5031493;28;20048;-81
2023/01/16 04:38:18;;;;;;;25.98;7.72;;;;;;;;;;5029301;28;20091;-81
2023/01/16 04:40:43;;;;;;;22.90;8.85;;;;;;;;;;5037116;28;20064;-81
2023/01/16 04:43:08;;;;;;;29.80;8.18;;;;;;;;;;5029968;28;20033;-81
2023/01/16 04:45:34;;;;;;;26.15;9.05;;;;;;;;;;5029375;28;20048;-81
2023/01/16 04:47:59;;;;;;;28.92;9.48;;;;;;;;;;5029999;28;20021;-81
2023/01/16 04:50:25;;;;;;;26.13;8.73;;;;;;;;;;5015173;28;20396;-82
2023/01/16 04:52:50;;;;;;;31.02;9.60;;;;;;;;;;5033680;28;20087;-82
2023/01/16 04:55:16;;;;;;;25.02;8.40;;;;;;;;;;5039399;28;20040;-80
2023/01/16 04:57:41;;;;;;;34.10;8.48;;;;;;;;;;5035912;28;20078;-82
2023/01/16 05:00:07;;;;;;;24.13;8.68;;;;;;;;;;5034972;28;20038;-83
2023/01/16 05:02:32;;;;;;;24.85;7.97;;;;;;;;;;5032722;28;20045;-81
2023/01/16 05:04:58;;;;;;;36.13;8.50;;;;;;;;;;5038535;28;20037;-81
2023/01/16 05:07:26;;;;;;;26.25;9.10;;;;;;;;;;5032101;28;20040;-82
2023/01/16 05:09:51;;;;;;;33.58;8.20;;;;;;;;;;5036865;28;20484;-82
2023/01/16 05:12:17;;;;;;;30.25;8.05;;;;;;;;;;5029140;28;20055;-83
2023/01/16 05:14:43;;;;;;;32.53;9.30;;;;;;;;;;5033711;28;20037;-83
2023/01/16 05:17:08;;;;;;;33.50;9.50;;;;;;;;;;5032682;28;20510;-83
2023/01/16 05:19:33;;;;;;;32.67;9.55;;;;;;;;;;5027912;28;20033;-82
2023/01/16 05:21:59;;;;;;;25.63;8.85;;;;;;;;;;5033819;28;20326;-83
2023/01/16 05:24:24;;;;;;;24.17;9.65;;;;;;;;;;5032789;28;20039;-83
2023/01/16 05:26:50;;;;;;;32.78;9.13;;;;;;;;;;5034237;28;20037;-81
2023/01/16 05:29:15;;;;;;;25.80;7.82;;;;;;;;;;5042076;28;20033;-80
2023/01/16 05:31:41;;;;;;;33.13;9.98;;;;;;;;;;5030865;28;20515;-81
2023/01/16 05:34:07;;;;;;;39.63;9.70;;;;;;;;;;5033303;28;20064;-81
2023/01/16 05:36:33;;;;;;;32.30;8.57;;;;;;;;;;5031615;28;20496;-81
2023/01/16 05:38:58;;;;;;;29.27;9.15;;;;;;;;;;5033310;28;20539;-80
2023/01/16 05:41:24;;;;;;;28.05;8.95;;;;;;;;;;5013583;28;20033;-81
2023/01/16 05:43:49;;;;;;;25.15;7.75;;;;;;;;;;5033210;28;20504;-80
2023/01/16 05:46:15;;;;;;;27.88;8.50;;;;;;;;;;5039067;28;20037;-80
2023/01/16 05:48:40;;;;;;;23.13;7.68;;;;;;;;;;5040227;28;20511;-82
2023/01/16 05:51:06;;;;;;;27.45;9.00;;;;;;;;;;5029486;28;20029;-80
2023/01/16 05:53:31;;;;;;;29.08;9.60;;;;;;;;;;5038740;28;20029;-80
2023/01/16 05:55:57;;;;;;;35.80;8.70;;;;;;;;;;5032122;28;20029;-80
2023/01/16 05:58:22;;;;;;;26.83;8.75;;;;;;;;;;5030556;28;20508;-80
2023/01/16 06:00:48;;;;;;;23.15;8.75;;;;;;;;;;5037503;28;20055;-80
2023/01/16 06:03:15;;;;;;;26.85;8.65;;;;;;;;;;5035223;28;20140;-80
2023/01/16 06:05:41;;;;;;;26.70;8.73;;;;;;;;;;5034169;28;20033;-80
2023/01/16 06:08:06;;;;;;;31.15;8.77;;;;;;;;;;5029654;28;20028;-80
2023/01/16 06:10:32;;;;;;;25.17;8.50;;;;;;;;;;5030935;28;20116;-80
2023/01/16 06:12:57;;;;;;;24.60;7.70;;;;;;;;;;5030873;28;20077;-80
2023/01/16 06:15:23;;;;;;;27.98;8.95;;;;;;;;;;5032413;28;20048;-82
2023/01/16 06:17:50;;;;;;;26.52;7.60;;;;;;;;;;5032432;28;20041;-81
2023/01/16 06:20:16;;;;;;;28.50;8.40;;;;;;;;;;5029424;28;20036;-80
2023/01/16 06:22:41;;;;;;;21.52;8.50;;;;;;;;;;5030475;28;20025;-81
2023/01/16 06:25:07;;;;;;;16.23;7.65;;;;;;;;;;5030339;28;20128;-80
2023/01/16 06:27:32;;;;;;;21.55;7.95;;;;;;;;;;5037024;28;20036;-81
2023/01/16 06:29:58;;;;;;;13.35;7.28;;;;;;;;;;5033220;28;20032;-80
2023/01/16 06:32:23;;;;;;;23.40;7.93;;;;;;;;;;5031146;28;20095;-80
2023/01/16 06:34:49;;;;;;;25.67;7.82;;;;;;;;;;5031212;28;20045;-81
2023/01/16 06:37:14;;;;;;;24.63;7.63;;;;;;;;;;5027715;28;20034;-80
2023/01/16 06:39:40;;;;;;;24.33;7.32;;;;;;;;;;5030413;28;20045;-81
2023/01/16 06:42:05;;;;;;;21.27;8.05;;;;;;;;;;5031371;28;20026;-81
2023/01/16 06:44:33;;;;;;;24.73;8.07;;;;;;;;;;5031968;28;20042;-80
2023/01/16 06:47:00;;;;;;;21.88;7.65;;;;;;;;;;5030442;28;20026;-80
2023/01/16 06:49:25;;;;;;;18.13;7.15;;;;;;;;;;5039906;28;20036;-80
2023/01/16 06:51:51;;;;;;;20.90;6.88;;;;;;;;;;5039886;28;20388;-80
2023/01/16 06:54:16;;;;;;;21.40;7.13;;;;;;;;;;5029758;28;20033;-80
2023/01/16 06:56:41;;;;;;;17.17;7.28;;;;;;;;;;5031594;28;20041;-81
2023/01/16 06:59:07;;;;;;;22.02;7.68;;;;;;;;;;5035122;28;20547;-82
2023/01/16 07:01:32;;;;;;;24.80;6.85;;;;;;;;;;5031303;28;20039;-82
2023/01/16 07:03:58;;;;;;;25.45;7.20;;;;;;;;;;5029560;28;20488;-82
2023/01/16 07:06:23;;;;;;;14.30;6.32;;;;;;;;;;5031212;28;20060;-81
2023/01/16 07:08:50;;;;;;;22.67;7.13;;;;;;;;;;5030589;28;20112;-81
2023/01/16 07:11:16;;;;;;;12.27;6.05;;;;;;;;;;5031177;28;20033;-81
2023/01/16 07:13:41;;;;;;;23.85;7.88;;;;;;;;;;5029531;28;20080;-80
2023/01/16 07:24:21;;;;;;;19.75;6.43;;;;;;;;;;5029048;28;20528;-82
2023/01/16 07:26:47;;;;;;;17.55;6.40;;;;;;;;;;5031385;28;20589;-81
2023/01/16 07:29:13;;;;;;;21.90;6.68;;;;;;;;;;5031049;28;20073;-82
2023/01/16 07:31:38;;;;;;;11.90;6.03;;;;;;;;;;5030717;28;20021;-82
2023/01/16 07:34:04;;;;;;;19.48;6.88;;;;;;;;;;5030115;28;20048;-81
2023/01/16 07:36:29;;;;;;;16.88;6.82;;;;;;;;;;5026284;28;20073;-81
2023/01/16 07:38:55;;;;;;;22.40;7.18;;;;;;;;;;5022309;28;20110;-81
2023/01/16 07:41:20;;;;;;;23.33;7.30;;;;;;;;;;5029746;28;20443;-81
2023/01/16 07:43:45;;;;;;;19.77;6.55;;;;;;;;;;5035741;28;20384;-81
2023/01/16 07:46:11;;;;;;;21.27;6.85;;;;;;;;;;5031735;28;20033;-81
2023/01/16 07:48:36;;;;;;;19.40;7.38;;;;;;;;;;5031197;28;20103;-80
2023/01/16 07:51:02;;;;;;;21.27;7.43;;;;;;;;;;5030292;28;20500;-81
2023/01/16 07:53:28;;;;;;;14.63;6.93;;;;;;;;;;5037273;28;20106;-82
2023/01/16 07:55:53;;;;;;;;;;;;;;;;;;5031317;28;20542;-81
2023/01/16 07:58:19;;;;;;;23.20;7.25;;;;;;;;;;5046008;28;19913;-82
2023/01/16 08:00:44;;;;;;;22.63;7.38;;;;;;;;;;5030251;28;20013;-82
2023/01/16 08:03:10;;;;;;;24.73;8.50;;;;;;;;;;5019498;28;20041;-82
2023/01/16 08:05:36;;;;;;;19.63;7.80;;;;;;;;;;5028846;28;20063;-81
2023/01/16 08:08:01;;;;;;;25.02;8.38;;;;;;;;;;5029878;28;20038;-81
2023/01/16 08:10:26;;;;;;;26.00;8.55;;;;;;;;;;5030125;28;20500;-80
2023/01/16 08:12:52;;;;;;;20.90;7.38;;;;;;;;;;5030165;28;20527;-81
2023/01/16 08:15:17;;;;;;;15.88;7.35;;;;;;;;;;5030464;28;20038;-81
2023/01/16 08:17:43;;;;;;;26.27;7.40;;;;;;;;;;5035366;28;20447;-81
2023/01/16 08:20:09;;;;;;;18.83;7.03;;;;;;;;;;5030595;28;20029;-82
2023/01/16 08:22:34;;;;;;;23.92;7.25;;;;;;;;;;5029184;28;20034;-81
2023/01/16 08:25:00;;;;;;;18.80;6.82;;;;;;;;;;5033696;28;20511;-83
2023/01/16 08:27:25;;;;;;;17.23;7.00;;;;;;;;;;5044174;28;20041;-80
2023/01/16 08:29:51;;;;;;;28.08;7.80;;;;;;;;;;5037087;28;20036;-81
2023/01/16 08:32:16;;;;;;;24.63;8.00;;;;;;;;;;5034350;28;20029;-81
2023/01/16 08:34:42;;;;;;;18.80;7.65;;;;;;;;;;5032511;28;20030;-81
2023/01/16 08:37:10;;;;;;;18.15;7.55;;;;;;;;;;5034542;28;20447;-81
2023/01/16 08:39:38;;;;;;;14.93;6.75;;;;;;;;;;5033999;28;20033;-81
2023/01/16 08:53:03;;;;;;;22.35;7.13;;;;;;;;;;5017378;28;20034;-83
2023/01/16 08:55:28;;;;;;;16.75;6.97;;;;;;;;;;5031082;28;20113;-82
2023/01/16 08:57:56;;;;;;;19.27;7.35;;;;;;;;;;5034131;28;20037;-82
2023/01/16 09:00:22;;;;;;;22.70;6.97;;;;;;;;;;5036625;28;20029;-82
2023/01/16 09:02:47;;;;;;;16.08;6.93;;;;;;;;;;5034280;28;20113;-82
2023/01/16 09:05:13;;;;;;;21.58;7.45;;;;;;;;;;5014989;28;20029;-82
2023/01/16 09:07:39;;;;;;;22.88;7.57;;;;;;;;;;5031983;28;20041;-82
2023/01/16 09:10:04;;;;;;;18.27;7.45;;;;;;;;;;5032469;28;20504;-81
2023/01/16 09:15:14;;;;;;;16.10;7.05;;;;;;;;;;5017299;28;20033;-81
2023/01/16 09:17:39;;;;;;;19.48;6.60;;;;;;;;;;5032656;28;20036;-82
2023/01/16 09:20:05;;;;;;;13.75;6.75;;;;;;;;;;5029388;28;20037;-82
2023/01/16 09:22:31;;;;;;;18.60;7.22;;;;;;;;;;5031324;28;20112;-82
2023/01/16 09:24:56;;;;;;;15.98;6.55;;;;;;;;;;5030997;28;20083;-83
2023/01/16 09:27:24;;;;;;;14.25;6.15;;;;;;;;;;5029043;28;20389;-82
2023/01/16 09:29:49;;;;;;;24.27;7.15;;;;;;;;;;5035792;28;20047;-82
2023/01/16 09:32:16;;;;;;;17.63;6.80;;;;;;;;;;5039835;28;20112;-82
2023/01/16 09:34:42;;;;;;;17.23;6.35;;;;;;;;;;5031428;28;20065;-82
2023/01/16 09:37:07;;;;;;;19.13;8.23;;;;;;;;;;5038851;28;20116;-83
2023/01/16 09:39:33;;;;;;;20.45;8.50;;;;;;;;;;5030893;28;20032;-81
2023/01/16 09:44:59;;;;;;;19.95;7.70;;;;;;;;;;5027235;28;20505;-81
2023/01/16 09:47:24;;;;;;;22.35;8.10;;;;;;;;;;5030737;28;20033;-82
2023/01/16 09:49:54;;;;;;;19.75;8.02;;;;;;;;;;5014293;28;20033;-82
2023/01/16 10:00:34;;;;;;;24.70;9.18;;;;;;;;;;5023604;28;20072;-82
2023/01/16 10:03:00;;;;;;;31.55;9.07;;;;;;;;;;5031436;28;20495;-82
2023/01/16 10:05:28;;;;;;;25.98;8.75;;;;;;;;;;5038665;28;20044;-81
2023/01/16 10:07:54;;;;;;;24.38;8.45;;;;;;;;;;5043153;28;20017;-81
2023/01/16 10:10:29;;;;;;;18.23;7.68;;;;;;;;;;5032402;28;20037;-83
2023/01/16 10:13:04;;;;;;;27.55;8.35;;;;;;;;;;5032578;28;20100;-82
2023/01/16 10:15:36;;;;;;;26.73;9.77;;;;;;;;;;5033626;28;20516;-82
2023/01/16 10:18:20;;;;;;;28.55;9.48;;;;;;;;;;5033121;28;20033;-81
2023/01/16 10:20:52;;;;;;;24.33;8.95;;;;;;;;;;5026185;28;20037;-82
2023/01/16 10:23:26;;;;;;;23.95;8.10;;;;;;;;;;5030779;28;20040;-82
2023/01/16 10:26:01;;;;;;;27.05;9.07;;;;;;;;;;5023587;28;20095;-82
2023/01/16 10:28:47;;;;;;;30.10;9.35;;;;;;;;;;5030103;28;20044;-82
2023/01/16 10:31:32;;;;;;;22.02;7.93;;;;;;;;;;5029615;28;20065;-81
2023/01/16 10:34:06;;;;;;;23.55;8.63;;;;;;;;;;5037667;28;20046;-82
2023/01/16 10:36:33;;;;;;;24.88;8.38;;;;;;;;;;5036954;28;20087;-82
2023/01/16 10:38:58;;;;;;;21.45;8.15;;;;;;;;;;5009818;28;20052;-82
2023/01/16 10:49:55;;;;;;;19.20;7.90;;;;;;;;;;5040514;28;20030;-81
2023/01/16 10:52:20;;;;;;;26.60;9.27;;;;;;;;;;5029257;28;20036;-82
2023/01/16 10:54:46;;;;;;;17.50;7.45;;;;;;;;;;5032676;28;20091;-82
2023/01/16 10:57:15;;;;;;;20.88;8.13;;;;;;;;;;5032641;28;20130;-83
2023/01/16 10:59:41;;;;;;;20.33;7.13;;;;;;;;;;5029570;28;20045;-82
2023/01/16 11:02:12;;;;;;;19.92;8.25;;;;;;;;;;5022145;28;20029;-83
2023/01/16 11:04:40;;;;;;;23.55;8.20;;;;;;;;;;5029491;28;20121;-82
2023/01/16 11:07:12;;;;;;;24.08;7.88;;;;;;;;;;5030334;28;20024;-81
2023/01/16 11:09:38;;;;;;;19.13;8.30;;;;;;;;;;5032769;28;20560;-82
2023/01/16 11:20:19;;;;;;;15.93;6.95;;;;;;;;;;5013596;28;20088;-81
2023/01/16 11:22:48;;;;;;;18.25;7.53;;;;;;;;;;5038163;28;20539;-82
2023/01/16 11:25:17;;;;;;;15.68;7.32;;;;;;;;;;5013611;28;20150;-82
2023/01/16 11:27:43;;;;;;;17.13;7.40;;;;;;;;;;5039788;28;20025;-84
2023/01/16 11:30:14;;;;;;;15.27;6.85;;;;;;;;;;5019546;28;20030;-83
2023/01/16 11:32:47;;;;;;;16.25;6.55;;;;;;;;;;5037688;28;20032;-83
2023/01/16 11:35:13;;;;;;;14.82;6.93;;;;;;;;;;5025166;28;20033;-83
2023/01/16 11:37:38;;;;;;;13.63;6.25;;;;;;;;;;5037613;28;20466;-82
2023/01/16 11:40:04;;;;;;;13.70;6.72;;;;;;;;;;5029920;28;20404;-81
2023/01/16 11:48:00;;;;;;;10.85;5.90;;;;;;;;;;5029696;28;20037;-81
2023/01/16 11:50:27;;;;;;;10.38;5.82;;;;;;;;;;5028327;28;20099;-81
2023/01/16 11:52:52;;;;;;;14.90;6.72;;;;;;;;;;5028663;28;20510;-82
2023/01/16 11:55:18;;;;;;;13.98;6.13;;;;;;;;;;5028729;28;20022;-81
2023/01/16 11:57:46;;;;;;;15.20;6.53;;;;;;;;;;5028866;28;20033;-82
2023/01/16 12:00:12;;;;;;;17.45;6.43;;;;;;;;;;5052294;28;20033;-83
2023/01/16 12:02:46;;;;;;;13.02;6.15;;;;;;;;;;5033529;28;20052;-81
2023/01/16 12:08:12;;;;;;;14.00;6.78;;;;;;;;;;5033636;28;20057;-81
2023/01/16 12:10:40;;;;;;;13.43;6.97;;;;;;;;;;5035262;28;20138;-83
2023/01/16 12:16:10;;;;;;;13.07;5.50;;;;;;;;;;5027243;28;20376;-83
2023/01/16 12:18:39;;;;;;;10.32;5.50;;;;;;;;;;5021506;28;20041;-83
2023/01/16 12:21:08;;;;;;;14.63;7.03;;;;;;;;;;5034776;28;20037;-83
2023/01/16 12:23:37;;;;;;;10.60;5.93;;;;;;;;;;5033286;28;20037;-82
2023/01/16 12:26:02;;;;;;;14.60;6.22;;;;;;;;;;5042516;28;20083;-83
2023/01/16 12:28:31;;;;;;;14.82;6.22;;;;;;;;;;5033432;28;20060;-82
2023/01/16 12:31:31;;;;;;;14.10;6.57;;;;;;;;;;5032472;28;20187;-82
2023/01/16 12:34:15;;;;;;;12.88;6.70;;;;;;;;;;5022627;28;20033;-83
2023/01/16 12:36:44;;;;;;;17.00;8.07;;;;;;;;;;5031761;28;20045;-82
2023/01/16 12:39:13;;;;;;;15.68;7.18;;;;;;;;;;5032400;28;20030;-82
2023/01/16 12:44:54;;;;;;;13.82;6.45;;;;;;;;;;5036039;28;20037;-82
2023/01/16 12:47:27;;;;;;;13.07;6.85;;;;;;;;;;5032589;28;20033;-82
2023/01/16 12:50:03;;;;;;;15.68;8.00;;;;;;;;;;5029462;28;20125;-83
2023/01/16 12:52:44;;;;;;;13.98;8.30;;;;;;;;;;5031930;28;20095;-81
2023/01/16 12:55:24;;;;;;;15.43;7.18;;;;;;;;;;5024661;28;20172;-81
2023/01/16 12:57:53;;;;;;;12.55;7.25;;;;;;;;;;5031316;28;20037;-82
2023/01/16 13:00:23;;;;;;;15.23;6.82;;;;;;;;;;5032280;28;20505;-83
2023/01/16 13:02:56;;;;;;;15.80;7.15;;;;;;;;;;5029675;28;20470;-83
2023/01/16 13:05:24;;;;;;;15.10;7.63;;;;;;;;;;5034890;28;20048;-82
2023/01/16 13:07:49;;;;;;;17.15;7.82;;;;;;;;;;5030401;28;20481;-83
2023/01/16 13:13:25;;;;;;;16.38;8.10;;;;;;;;;;5041740;28;20057;-82
2023/01/16 13:16:04;;;;;;;20.63;7.47;;;;;;;;;;5033396;28;20050;-82
2023/01/16 13:18:40;;;;;;;15.80;8.10;;;;;;;;;;5032514;28;20121;-81
2023/01/16 13:21:07;;;;;;;17.60;7.80;;;;;;;;;;5021881;28;20043;-83
2023/01/16 13:23:36;;;;;;;17.23;8.63;;;;;;;;;;5032579;28;20091;-81
2023/01/16 13:26:08;;;;;;;16.42;8.02;;;;;;;;;;5014717;28;20068;-81
2023/01/16 13:28:34;;;;;;;17.15;8.50;;;;;;;;;;5010474;28;20033;-81
2023/01/16 13:31:01;;;;;;;16.75;7.25;;;;;;;;;;5032500;28;20029;-82
2023/01/16 13:33:28;;;;;;;15.50;8.20;;;;;;;;;;5030557;28;20040;-82
2023/01/16 13:35:53;;;;;;;20.30;8.35;;;;;;;;;;5031355;28;20060;-82
2023/01/16 13:38:38;;;;;;;19.55;8.82;;;;;;;;;;5039918;28;20119;-82
2023/01/16 13:41:15;;;;;;;18.85;8.75;;;;;;;;;;5030985;28;20135;-82
2023/01/16 13:46:32;;;;;;;24.25;8.63;;;;;;;;;;5027089;28;20037;-81
2023/01/16 13:48:59;;;;;;;17.23;8.32;;;;;;;;;;5039408;28;20039;-82
2023/01/16 13:51:25;;;;;;;22.58;10.38;;;;;;;;;;5034274;28;20136;-83
2023/01/16 13:53:51;;;;;;;19.27;8.80;;;;;;;;;;5033199;28;20112;-83
2023/01/16 13:56:16;;;;;;;;;;;;;;;;;;5032541;28;20492;-83
2023/01/16 13:58:45;;;;;;;20.75;9.18;;;;;;;;;;5031358;28;19937;-83
2023/01/16 14:01:29;;;;;;;18.10;9.68;;;;;;;;;;5029676;28;20116;-82
2023/01/16 14:04:10;;;;;;;16.23;7.70;;;;;;;;;;5031815;28;20026;-81
2023/01/16 14:06:41;;;;;;;21.58;8.77;;;;;;;;;;5031769;28;20036;-81
2023/01/16 14:09:32;;;;;;;21.58;9.40;;;;;;;;;;5028683;28;20076;-81
2023/01/16 14:12:01;;;;;;;21.45;9.32;;;;;;;;;;5037349;28;20081;-83
2023/01/16 14:17:14;;;;;;;15.20;8.38;;;;;;;;;;5029270;28;20068;-81
2023/01/16 14:19:55;;;;;;;23.85;9.10;;;;;;;;;;5031248;28;20052;-83
2023/01/16 14:24:52;;;;;;;18.63;8.23;;;;;;;;;;5019316;28;20033;-82
2023/01/16 14:27:18;;;;;;;19.17;8.48;;;;;;;;;;5022079;28;20035;-82
2023/01/16 14:29:43;;;;;;;19.05;8.45;;;;;;;;;;5045387;28;20017;-82
2023/01/16 14:32:12;;;;;;;19.38;9.65;;;;;;;;;;5032338;28;20075;-82
2023/01/16 14:34:49;;;;;;;19.35;8.55;;;;;;;;;;5031111;28;20045;-83
2023/01/16 14:37:16;;;;;;;22.55;9.00;;;;;;;;;;5030958;28;20073;-82
2023/01/16 14:39:49;;;;;;;22.50;10.10;;;;;;;;;;5029749;28;20021;-83
2023/01/16 14:56:36;;;;;;;;;;;;;;;;;;5031893;28;20080;-83
2023/01/16 14:59:06;;;;;;;19.98;8.95;;;;;;;;;;5040767;28;19952;-82
2023/01/16 15:04:22;;;;;;;19.83;9.65;;;;;;;;;;5026867;28;20038;-81
2023/01/16 15:06:55;;;;;;;26.95;11.30;;;;;;;;;;5029876;28;20488;-81
2023/01/16 15:09:20;;;;;;;24.10;9.25;;;;;;;;;;5027454;28;20033;-81
2023/01/16 15:11:51;;;;;;;24.13;10.38;;;;;;;;;;5030204;28;20056;-82
2023/01/16 15:14:30;;;;;;;22.20;9.90;;;;;;;;;;5011620;28;20030;-83
2023/01/16 15:22:56;;;;;;;22.05;10.55;;;;;;;;;;5031806;28;20048;-82
2023/01/16 15:25:40;;;;;;;20.00;9.88;;;;;;;;;;5020329;28;20416;-81
2023/01/16 15:28:14;;;;;;;21.95;9.80;;;;;;;;;;5030907;28;20132;-81
2023/01/16 15:30:40;;;;;;;17.77;8.95;;;;;;;;;;5031321;28;20133;-83
2023/01/16 15:35:54;;;;;;;19.00;9.30;;;;;;;;;;5024888;28;20105;-82
2023/01/16 15:38:19;;;;;;;24.15;10.30;;;;;;;;;;5031117;28;20025;-83
2023/01/16 15:40:49;;;;;;;19.65;9.57;;;;;;;;;;5031536;28;20045;-83
2023/01/16 15:48:51;;;;;;;27.15;11.43;;;;;;;;;;5032953;28;20029;-83
2023/01/16 15:51:17;;;;;;;28.52;11.75;;;;;;;;;;5032942;28;20441;-82
2023/01/16 15:53:46;;;;;;;19.92;10.50;;;;;;;;;;5035348;28;20048;-81
2023/01/16 15:56:17;;;;;;;20.60;10.57;;;;;;;;;;5030629;28;20033;-83
2023/01/16 15:58:43;;;;;;;21.85;10.55;;;;;;;;;;5034314;28;20048;-84
2023/01/16 16:01:08;;;;;;;21.05;9.55;;;;;;;;;;5031968;28;20025;-83
2023/01/16 16:03:38;;;;;;;18.48;9.55;;;;;;;;;;5030780;28;20071;-83
2023/01/16 16:06:04;;;;;;;17.35;9.80;;;;;;;;;;5031935;28;20029;-82
2023/01/16 16:08:30;;;;;;;27.20;10.05;;;;;;;;;;5014015;28;20041;-82
2023/01/16 16:13:40;;;;;;;19.40;9.80;;;;;;;;;;5029408;28;20131;-82
2023/01/16 16:19:06;;;;;;;22.40;9.70;;;;;;;;;;5026856;28;20068;-82
2023/01/16 16:21:31;;;;;;;17.80;10.10;;;;;;;;;;5026256;28;20083;-82
2023/01/16 16:23:58;;;;;;;22.70;9.98;;;;;;;;;;5032334;28;20041;-82
2023/01/16 16:26:23;;;;;;;23.08;9.65;;;;;;;;;;5030027;28;20029;-81
2023/01/16 16:28:49;;;;;;;23.23;10.27;;;;;;;;;;5028828;28;20044;-80
2023/01/16 16:31:25;;;;;;;22.70;10.38;;;;;;;;;;5011938;28;20118;-81
2023/01/16 16:33:55;;;;;;;27.10;10.88;;;;;;;;;;5030209;28;20037;-82